createdAt,value
2022-12-12T00:01:46.371Z,0.30
2022-12-12T00:04:15.544Z,0.10
2022-12-12T00:06:47.395Z,0.10
2022-12-12T00:09:16.355Z,0.20
2022-12-12T00:11:43.146Z,0.30
2022-12-12T00:14:09.932Z,0.20
2022-12-12T00:16:38.907Z,0.20
2022-12-12T00:19:07.965Z,0.30
2022-12-12T00:21:34.714Z,0.20
2022-12-12T00:24:01.470Z,0.30
2022-12-12T00:26:35.771Z,0.20
2022-12-12T00:29:04.912Z,0.10
2022-12-12T00:31:31.694Z,0.00
2022-12-12T00:33:58.473Z,-0.10
2022-12-12T00:36:32.446Z,-0.20
2022-12-12T00:39:02.617Z,-0.20
2022-12-12T00:41:29.579Z,-0.20
2022-12-12T00:43:56.421Z,-0.10
2022-12-12T00:46:27.263Z,-0.10
2022-12-12T00:48:58.516Z,-0.10
2022-12-12T00:51:27.089Z,0.00
2022-12-12T00:53:53.950Z,0.00
2022-12-12T00:56:22.570Z,-0.10
2022-12-12T00:58:57.645Z,-0.20
2022-12-12T01:01:31.181Z,-0.20
2022-12-12T01:03:59.292Z,-0.30
2022-12-12T01:06:27.343Z,-0.30
2022-12-12T01:08:57.028Z,-0.30
2022-12-12T01:11:28.978Z,-0.30
2022-12-12T01:13:56.056Z,-0.40
2022-12-12T01:16:25.583Z,-0.40
2022-12-12T01:18:56.995Z,-0.40
2022-12-12T01:21:28.309Z,-0.40
2022-12-12T01:23:57.353Z,-0.40
2022-12-12T01:26:24.994Z,-0.40
2022-12-12T01:28:52.149Z,-0.40
2022-12-12T01:31:19.267Z,-0.30
2022-12-12T01:33:48.552Z,-0.20
2022-12-12T01:36:19.042Z,-0.20
2022-12-12T01:38:50.865Z,-0.20
2022-12-12T01:41:20.614Z,-0.20
2022-12-12T01:43:50.171Z,-0.20
2022-12-12T01:46:25.952Z,-0.30
2022-12-12T01:49:00.525Z,-0.30
2022-12-12T01:51:28.170Z,-0.30
2022-12-12T01:54:05.358Z,-0.30
2022-12-12T01:56:33.046Z,-0.30
2022-12-12T01:59:02.177Z,-0.30
2022-12-12T02:01:31.598Z,-0.40
2022-12-12T02:04:00.631Z,-0.40
2022-12-12T02:06:33.724Z,-0.50
2022-12-12T02:09:04.882Z,-0.60
2022-12-12T02:11:42.209Z,-0.70
2022-12-12T02:14:09.191Z,-0.70
2022-12-12T02:17:12.655Z,-0.70
2022-12-12T02:20:24.603Z,-0.70
2022-12-12T02:23:00.714Z,-0.70
2022-12-12T02:26:18.080Z,-0.70
2022-12-12T02:29:25.734Z,-0.80
2022-12-12T02:32:13.826Z,-0.90
2022-12-12T02:34:49.573Z,-0.80
2022-12-12T02:37:29.421Z,-0.60
2022-12-12T02:40:05.011Z,-0.60
2022-12-12T02:42:44.851Z,-0.70
2022-12-12T02:45:21.406Z,-0.80
2022-12-12T02:47:56.914Z,-0.80
2022-12-12T02:50:28.519Z,-0.80
2022-12-12T02:52:55.240Z,-0.90
2022-12-12T02:55:24.512Z,-1.00
2022-12-12T02:57:54.128Z,-1.10
2022-12-12T03:00:23.262Z,-1.20
2022-12-12T03:03:39.536Z,-1.20
2022-12-12T03:07:09.075Z,-1.10
2022-12-12T03:09:59.564Z,-1.10
2022-12-12T03:12:48.966Z,-1.30
2022-12-12T03:15:38.687Z,-1.50
2022-12-12T03:18:36.824Z,-1.70
2022-12-12T03:21:03.643Z,-1.80
2022-12-12T03:23:39.211Z,-1.90
2022-12-12T03:26:09.016Z,-1.90
2022-12-12T03:28:48.500Z,-1.90
2022-12-12T03:31:17.864Z,-1.90
2022-12-12T03:33:49.607Z,-1.90
2022-12-12T03:36:29.970Z,-1.90
2022-12-12T03:39:02.138Z,-1.80
2022-12-12T03:41:35.952Z,-1.80
2022-12-12T03:44:22.391Z,-1.90
2022-12-12T03:46:57.142Z,-1.80
2022-12-12T03:49:34.812Z,-1.80
2022-12-12T03:52:23.147Z,-1.80
2022-12-12T03:54:56.421Z,-1.80
2022-12-12T03:57:47.964Z,-1.80
2022-12-12T04:00:18.336Z,-1.80
2022-12-12T04:02:58.377Z,-1.80
2022-12-12T04:06:00.043Z,-1.80
2022-12-12T04:08:27.432Z,-1.80
2022-12-12T04:11:19.672Z,-1.80
2022-12-12T04:14:06.543Z,-1.80
2022-12-12T04:16:39.775Z,-1.80
2022-12-12T04:19:13.548Z,-1.80
2022-12-12T04:22:01.279Z,-1.80
2022-12-12T04:24:41.074Z,-1.80
2022-12-12T04:27:09.641Z,-1.80
2022-12-12T04:29:55.682Z,-1.80
2022-12-12T04:32:30.666Z,-1.80
2022-12-12T04:35:13.635Z,-1.80
2022-12-12T04:37:46.523Z,-1.80
2022-12-12T04:40:22.520Z,-1.70
2022-12-12T04:43:29.084Z,-1.70
2022-12-12T04:46:00.951Z,-1.80
2022-12-12T04:48:33.383Z,-1.70
2022-12-12T04:51:06.694Z,-1.50
2022-12-12T04:53:39.318Z,-1.40
2022-12-12T04:56:11.759Z,-1.40
2022-12-12T04:58:40.182Z,-1.50
2022-12-12T05:01:53.397Z,-1.60
2022-12-12T05:04:39.390Z,-1.60
2022-12-12T05:07:20.497Z,-1.60
2022-12-12T05:09:50.482Z,-1.60
2022-12-12T05:12:20.958Z,-1.70
2022-12-12T05:14:54.925Z,-1.60
2022-12-12T05:17:31.266Z,-1.70
2022-12-12T05:19:58.744Z,-1.60
2022-12-12T05:22:25.495Z,-1.60
2022-12-12T05:24:52.180Z,-1.50
2022-12-12T05:27:23.248Z,-1.40
2022-12-12T05:29:49.894Z,-1.40
2022-12-12T05:32:18.804Z,-1.50
2022-12-12T05:34:47.779Z,-1.40
2022-12-12T05:37:14.416Z,-1.40
2022-12-12T05:39:43.390Z,-1.30
2022-12-12T05:42:12.533Z,-1.30
2022-12-12T05:44:39.327Z,-1.40
2022-12-12T05:47:08.222Z,-1.40
2022-12-12T05:49:34.983Z,-1.40
2022-12-12T05:52:02.083Z,-1.50
2022-12-12T05:54:28.836Z,-1.40
2022-12-12T05:56:57.907Z,-1.40
2022-12-12T05:59:27.167Z,-1.40
2022-12-12T06:01:58.932Z,-1.40
2022-12-12T06:04:30.694Z,-1.30
2022-12-12T06:06:59.900Z,-1.20
2022-12-12T06:09:26.725Z,-1.20
2022-12-12T06:11:53.830Z,-1.20
2022-12-12T06:14:20.559Z,-1.20
2022-12-12T06:16:47.330Z,-1.10
2022-12-12T06:19:17.603Z,-1.20
2022-12-12T06:21:44.420Z,-1.20
2022-12-12T06:24:11.482Z,-1.20
2022-12-12T06:26:42.703Z,-1.30
2022-12-12T06:29:11.727Z,-1.30
2022-12-12T06:31:43.214Z,-1.30
2022-12-12T06:34:10.056Z,-1.30
2022-12-12T06:36:37.116Z,-1.40
2022-12-12T06:39:04.370Z,-1.50
2022-12-12T06:41:33.246Z,-1.50
2022-12-12T06:44:00.212Z,-1.60
2022-12-12T06:46:29.067Z,-1.60
2022-12-12T06:48:56.763Z,-1.50
2022-12-12T06:51:26.261Z,-1.50
2022-12-12T06:53:53.567Z,-1.40
2022-12-12T06:56:26.231Z,-1.40
2022-12-12T06:58:54.273Z,-1.30
2022-12-12T07:01:23.140Z,-1.40
2022-12-12T07:03:51.779Z,-1.40
2022-12-12T07:06:20.960Z,-1.40
2022-12-12T07:08:48.517Z,-1.50
2022-12-12T07:11:18.270Z,-1.50
2022-12-12T07:13:45.174Z,-1.50
2022-12-12T07:16:12.320Z,-1.50
2022-12-12T07:18:39.620Z,-1.50
2022-12-12T07:21:10.510Z,-1.50
2022-12-12T07:23:37.551Z,-1.50
2022-12-12T07:26:13.482Z,-1.50
2022-12-12T07:28:40.689Z,-1.50
2022-12-12T07:31:11.819Z,-1.50
2022-12-12T07:33:44.474Z,-1.50
2022-12-12T07:36:13.637Z,-1.40
2022-12-12T07:38:43.013Z,-1.30
2022-12-12T07:41:13.478Z,-1.20
2022-12-12T07:43:45.727Z,-1.20
2022-12-12T07:46:18.445Z,-1.20
2022-12-12T07:48:48.015Z,-1.20
2022-12-12T07:51:16.137Z,-1.30
2022-12-12T07:53:43.191Z,-1.30
2022-12-12T07:56:14.169Z,-1.20
2022-12-12T07:58:44.316Z,-1.10
2022-12-12T08:01:16.577Z,-1.10
2022-12-12T08:03:44.744Z,-1.10
2022-12-12T08:06:11.903Z,-1.10
2022-12-12T08:08:40.912Z,-1.00
2022-12-12T08:11:10.124Z,-1.00
2022-12-12T08:13:39.444Z,-1.00
2022-12-12T08:16:12.643Z,-1.00
2022-12-12T08:18:41.950Z,-0.90
2022-12-12T08:21:13.210Z,-0.90
2022-12-12T08:23:40.768Z,-1.00
2022-12-12T08:26:12.566Z,-1.30
2022-12-12T08:28:41.391Z,-1.30
2022-12-12T08:31:09.070Z,-1.30
2022-12-12T08:33:38.587Z,-1.30
2022-12-12T08:36:14.745Z,-1.40
2022-12-12T08:38:44.654Z,-1.50
2022-12-12T08:41:16.557Z,-1.50
2022-12-12T08:43:43.338Z,-1.40
2022-12-12T08:46:18.168Z,-1.40
2022-12-12T08:48:48.059Z,-1.50
2022-12-12T08:51:18.409Z,-1.50
2022-12-12T08:53:52.804Z,-1.40
2022-12-12T08:56:22.412Z,-1.40
2022-12-12T08:58:50.716Z,-1.30
2022-12-12T09:01:24.241Z,-1.20
2022-12-12T09:03:54.741Z,-1.10
2022-12-12T09:06:24.751Z,-1.10
2022-12-12T09:08:51.641Z,-1.00
2022-12-12T09:11:20.854Z,-0.90
2022-12-12T09:13:49.941Z,-0.90
2022-12-12T09:16:19.392Z,-0.90
2022-12-12T09:18:49.061Z,-1.00
2022-12-12T09:21:17.105Z,-0.80
2022-12-12T09:23:46.113Z,-0.70
2022-12-12T09:26:13.073Z,-0.60
2022-12-12T09:28:42.516Z,-0.50
2022-12-12T09:31:10.839Z,-0.40
2022-12-12T09:33:38.095Z,-0.30
2022-12-12T09:36:11.838Z,-0.30
2022-12-12T09:38:38.685Z,-0.30
2022-12-12T09:41:12.749Z,-0.30
2022-12-12T09:43:47.707Z,-0.40
2022-12-12T09:46:31.246Z,-0.30
2022-12-12T09:49:13.182Z,-0.30
2022-12-12T09:51:48.131Z,-0.10
2022-12-12T09:54:21.006Z,0.00
2022-12-12T09:56:58.838Z,0.10
2022-12-12T09:59:38.984Z,0.20
2022-12-12T10:02:25.981Z,0.40
2022-12-12T10:05:07.089Z,0.50
2022-12-12T10:07:41.468Z,0.50
2022-12-12T10:10:22.565Z,0.50
2022-12-12T10:12:50.018Z,0.50
2022-12-12T10:15:25.734Z,0.40
2022-12-12T10:17:55.384Z,0.30
2022-12-12T10:20:27.674Z,0.30
2022-12-12T10:23:39.977Z,0.30
2022-12-12T10:26:15.090Z,0.20
2022-12-12T10:28:41.881Z,0.20
2022-12-12T10:31:26.810Z,0.10
2022-12-12T10:34:21.326Z,0.10
2022-12-12T10:37:01.806Z,0.00
2022-12-12T10:39:40.440Z,0.10
2022-12-12T10:42:26.094Z,0.20
2022-12-12T10:45:04.745Z,0.40
2022-12-12T10:47:34.580Z,0.40
2022-12-12T10:50:13.389Z,0.30
2022-12-12T10:52:40.563Z,0.30
2022-12-12T10:55:40.803Z,0.30
2022-12-12T10:58:07.949Z,0.20
2022-12-12T11:00:48.711Z,0.30
2022-12-12T11:03:35.853Z,0.30
2022-12-12T11:06:15.520Z,0.30
2022-12-12T11:08:53.920Z,0.30
2022-12-12T11:11:23.494Z,0.20
2022-12-12T11:14:01.453Z,0.20
2022-12-12T11:16:41.569Z,0.20
2022-12-12T11:19:24.421Z,0.30
2022-12-12T11:21:53.613Z,0.40
2022-12-12T11:24:32.264Z,0.40
2022-12-12T11:27:07.343Z,0.40
2022-12-12T11:29:53.171Z,0.40
2022-12-12T11:32:31.520Z,0.40
2022-12-12T11:35:04.950Z,0.50
2022-12-12T11:37:45.250Z,0.70
2022-12-12T11:40:34.554Z,0.70
2022-12-12T11:43:25.312Z,0.80
2022-12-12T11:46:06.025Z,0.90
2022-12-12T11:48:36.171Z,1.00
2022-12-12T11:51:04.609Z,1.10
2022-12-12T11:53:40.428Z,1.10
2022-12-12T11:56:10.231Z,1.20
2022-12-12T11:58:48.357Z,1.30
2022-12-12T12:01:36.523Z,1.40
2022-12-12T12:04:25.302Z,1.70
2022-12-12T12:07:07.489Z,2.00
2022-12-12T12:09:34.075Z,2.30
2022-12-12T12:12:09.668Z,2.60
2022-12-12T12:14:55.137Z,2.90
2022-12-12T12:17:33.787Z,2.90
2022-12-12T12:20:24.868Z,3.10
2022-12-12T12:23:00.292Z,3.20
2022-12-12T12:25:50.187Z,3.30
2022-12-12T12:28:54.681Z,3.30
2022-12-12T12:31:43.838Z,3.20
2022-12-12T12:34:47.527Z,3.10
2022-12-12T12:37:35.777Z,2.80
2022-12-12T12:40:15.251Z,2.70
2022-12-12T12:42:49.832Z,2.60
2022-12-12T12:45:42.487Z,2.40
2022-12-12T12:48:16.926Z,2.30
2022-12-12T12:50:54.267Z,2.00
2022-12-12T12:53:39.254Z,1.80
2022-12-12T12:56:26.216Z,1.60
2022-12-12T12:58:59.298Z,1.40
2022-12-12T13:01:40.203Z,1.30
2022-12-12T13:04:45.917Z,1.20
2022-12-12T13:07:53.543Z,1.10
2022-12-12T13:10:24.591Z,1.00
2022-12-12T13:13:13.357Z,1.00
2022-12-12T13:15:51.516Z,0.90
2022-12-12T13:18:21.106Z,0.80
2022-12-12T13:21:32.260Z,0.80
2022-12-12T13:24:12.319Z,0.80
2022-12-12T13:26:53.438Z,0.80
2022-12-12T13:29:39.855Z,0.80
2022-12-12T13:32:38.776Z,0.70
2022-12-12T13:35:13.712Z,0.70
2022-12-12T13:37:51.876Z,0.70
2022-12-12T13:40:39.387Z,0.70
2022-12-12T13:43:10.223Z,0.70
2022-12-12T13:45:45.084Z,0.80
2022-12-12T13:48:46.596Z,0.80
2022-12-12T13:51:32.002Z,0.70
2022-12-12T13:54:12.538Z,0.70
2022-12-12T13:56:45.192Z,0.70
2022-12-12T13:59:25.351Z,0.70
2022-12-12T14:02:00.061Z,0.60
2022-12-12T14:04:28.833Z,0.60
2022-12-12T14:07:16.489Z,0.50
2022-12-12T14:09:53.287Z,0.40
2022-12-12T14:12:32.210Z,0.40
2022-12-12T14:15:04.894Z,0.50
2022-12-12T14:17:42.129Z,0.40
2022-12-12T14:20:33.215Z,0.40
2022-12-12T14:23:02.045Z,0.40
2022-12-12T14:25:40.246Z,0.40
2022-12-12T14:28:26.557Z,0.40
2022-12-12T14:31:23.731Z,0.30
2022-12-12T14:34:10.387Z,0.30
2022-12-12T14:36:58.797Z,0.30
2022-12-12T14:39:47.580Z,0.30
2022-12-12T14:43:18.965Z,0.20
2022-12-12T14:45:31.513Z,0.10
2022-12-12T14:48:23.016Z,0.00
2022-12-12T14:51:10.694Z,0.00
2022-12-12T14:53:37.339Z,0.00
2022-12-12T14:56:10.166Z,-0.10
2022-12-12T14:58:43.179Z,-0.20
2022-12-12T15:01:12.463Z,-0.20
2022-12-12T15:03:47.051Z,-0.30
2022-12-12T15:06:34.295Z,-0.40
2022-12-12T15:09:19.315Z,-0.40
2022-12-12T15:11:48.149Z,-0.50
2022-12-12T15:14:19.493Z,-0.70
2022-12-12T15:17:06.396Z,-0.80
2022-12-12T15:19:52.253Z,-0.90
2022-12-12T15:22:28.130Z,-0.90
2022-12-12T15:24:57.580Z,-1.00
2022-12-12T15:27:46.022Z,-1.00
2022-12-12T15:30:26.078Z,-1.00
2022-12-12T15:32:53.724Z,-1.00
2022-12-12T15:35:24.967Z,-1.00
2022-12-12T15:37:59.598Z,-1.10
2022-12-12T15:40:32.434Z,-1.10
2022-12-12T15:43:03.273Z,-1.10
2022-12-12T15:45:39.161Z,-1.10
2022-12-12T15:48:12.370Z,-1.20
2022-12-12T15:50:42.047Z,-1.30
2022-12-12T15:53:32.463Z,-1.40
2022-12-12T15:56:09.033Z,-1.50
2022-12-12T15:58:35.751Z,-1.50
2022-12-12T16:01:08.183Z,-1.50
2022-12-12T16:04:00.349Z,-1.50
2022-12-12T16:06:32.427Z,-1.40
2022-12-12T16:09:22.624Z,-1.50
2022-12-12T16:11:51.439Z,-1.50
2022-12-12T16:14:39.173Z,-1.50
2022-12-12T16:17:20.087Z,-1.60
2022-12-12T16:19:55.288Z,-1.70
2022-12-12T16:22:48.088Z,-1.80
2022-12-12T16:25:18.044Z,-1.80
2022-12-12T16:27:49.316Z,-1.80
2022-12-12T16:30:16.903Z,-1.90
2022-12-12T16:32:46.241Z,-1.90
2022-12-12T16:35:23.376Z,-2.00
2022-12-12T16:37:52.490Z,-2.00
2022-12-12T16:40:21.243Z,-2.10
2022-12-12T16:43:03.670Z,-2.10
2022-12-12T16:45:33.065Z,-2.10
2022-12-12T16:48:00.009Z,-2.10
2022-12-12T16:50:28.939Z,-2.10
2022-12-12T16:52:55.770Z,-2.10
2022-12-12T16:55:26.233Z,-2.10
2022-12-12T16:57:52.933Z,-2.10
2022-12-12T17:00:22.339Z,-2.10
2022-12-12T17:02:49.088Z,-2.20
2022-12-12T17:05:19.256Z,-2.30
2022-12-12T17:07:46.000Z,-2.30
2022-12-12T17:10:13.584Z,-2.40
2022-12-12T17:12:40.873Z,-2.30
2022-12-12T17:15:14.682Z,-2.30
2022-12-12T17:17:46.767Z,-2.40
2022-12-12T17:20:18.197Z,-2.50
2022-12-12T17:22:46.371Z,-2.50
2022-12-12T17:25:14.438Z,-2.60
2022-12-12T17:27:41.977Z,-2.60
2022-12-12T17:30:10.399Z,-2.60
2022-12-12T17:32:37.432Z,-2.60
2022-12-12T17:35:06.044Z,-2.60
2022-12-12T17:37:32.920Z,-2.70
2022-12-12T17:39:59.727Z,-2.70
2022-12-12T17:42:28.919Z,-2.70
2022-12-12T17:44:55.867Z,-2.70
2022-12-12T17:47:25.326Z,-2.80
2022-12-12T17:49:52.062Z,-2.80
2022-12-12T17:52:20.915Z,-2.90
2022-12-12T17:55:53.357Z,-2.80
2022-12-12T17:57:37.102Z,-2.80
2022-12-12T18:00:05.271Z,-2.90
2022-12-12T18:02:33.800Z,-2.90
2022-12-12T18:05:03.963Z,-3.00
2022-12-12T18:07:33.193Z,-3.00
2022-12-12T18:09:59.995Z,-3.10
2022-12-12T18:12:27.035Z,-3.20
2022-12-12T18:14:53.761Z,-3.20
2022-12-12T18:17:20.686Z,-3.20
2022-12-12T18:19:47.475Z,-3.20
2022-12-12T18:22:16.810Z,-3.20
2022-12-12T18:24:45.695Z,-3.30
2022-12-12T18:27:14.866Z,-3.30
2022-12-12T18:29:41.586Z,-3.30
2022-12-12T18:32:08.378Z,-3.30
2022-12-12T18:34:37.590Z,-3.30
2022-12-12T18:37:04.436Z,-3.30
2022-12-12T18:39:31.136Z,-3.30
2022-12-12T18:42:00.701Z,-3.30
2022-12-12T18:44:27.500Z,-3.30
2022-12-12T18:46:54.234Z,-3.30
2022-12-12T18:49:21.055Z,-3.30
2022-12-12T18:51:47.922Z,-3.40
2022-12-12T18:54:18.659Z,-3.50
2022-12-12T18:56:48.666Z,-3.60
2022-12-12T18:59:18.575Z,-3.60
2022-12-12T19:01:45.777Z,-3.60
2022-12-12T19:04:22.925Z,-3.60
2022-12-12T19:06:50.631Z,-3.70
2022-12-12T19:09:23.760Z,-3.70
2022-12-12T19:12:01.846Z,-3.70
2022-12-12T19:14:40.643Z,-3.60
2022-12-12T19:17:18.411Z,-3.60
2022-12-12T19:19:50.581Z,-3.60
2022-12-12T19:25:09.681Z,-3.70
2022-12-12T19:27:36.374Z,-3.70
2022-12-12T19:30:04.017Z,-3.80
2022-12-12T19:32:32.907Z,-3.90
2022-12-12T19:34:59.718Z,-3.90
2022-12-12T19:37:26.404Z,-3.90
2022-12-12T19:39:53.410Z,-4.00
2022-12-12T19:42:20.542Z,-3.90
2022-12-12T19:44:47.275Z,-3.90
2022-12-12T19:47:13.944Z,-3.90
2022-12-12T19:49:40.739Z,-3.90
2022-12-12T19:52:13.627Z,-3.90
2022-12-12T19:54:41.048Z,-4.00
2022-12-12T19:57:07.806Z,-4.10
2022-12-12T19:59:34.496Z,-4.10
2022-12-12T20:02:05.444Z,-4.10
2022-12-12T20:04:32.523Z,-4.20
2022-12-12T20:06:59.316Z,-4.20
2022-12-12T20:09:28.360Z,-4.30
2022-12-12T20:11:56.554Z,-4.30
2022-12-12T20:14:29.274Z,-4.30
2022-12-12T20:16:56.655Z,-4.30
2022-12-12T20:19:26.892Z,-4.30
2022-12-12T20:22:01.708Z,-4.30
2022-12-12T20:24:32.451Z,-4.40
2022-12-12T20:27:03.214Z,-4.40
2022-12-12T20:29:36.054Z,-4.40
2022-12-12T20:32:03.098Z,-4.50
2022-12-12T20:34:30.110Z,-4.50
2022-12-12T20:36:57.347Z,-4.50
2022-12-12T20:39:25.789Z,-4.50
2022-12-12T20:41:57.661Z,-4.50
2022-12-12T20:44:28.992Z,-4.60
2022-12-12T20:46:55.797Z,-4.50
2022-12-12T20:49:28.646Z,-4.60
2022-12-12T20:51:57.255Z,-4.60
2022-12-12T20:54:26.379Z,-4.60
2022-12-12T20:56:54.468Z,-4.60
2022-12-12T20:59:21.621Z,-4.70
2022-12-12T21:01:48.592Z,-4.70
2022-12-12T21:04:15.790Z,-4.70
2022-12-12T21:06:51.534Z,-4.80
2022-12-12T21:09:24.326Z,-4.70
2022-12-12T21:11:57.876Z,-4.70
2022-12-12T21:14:26.598Z,-4.60
2022-12-12T21:16:53.782Z,-4.70
2022-12-12T21:19:21.122Z,-4.70
2022-12-12T21:21:48.127Z,-4.80
2022-12-12T21:24:19.358Z,-4.80
2022-12-12T21:26:51.614Z,-4.80
2022-12-12T21:29:21.076Z,-4.90
2022-12-12T21:31:52.119Z,-4.90
2022-12-12T21:34:21.353Z,-4.90
2022-12-12T21:37:03.916Z,-4.90
2022-12-12T21:39:34.471Z,-4.90
2022-12-12T21:42:03.791Z,-4.90
2022-12-12T21:44:30.615Z,-4.90
2022-12-12T21:46:59.535Z,-4.90
2022-12-12T21:49:27.002Z,-4.90
2022-12-12T21:52:00.365Z,-4.90
2022-12-12T21:54:30.213Z,-4.90
2022-12-12T21:57:00.848Z,-5.00
2022-12-12T21:59:30.719Z,-5.00
2022-12-12T22:01:59.204Z,-5.00
2022-12-12T22:04:28.967Z,-4.90
2022-12-12T22:06:58.273Z,-4.90
2022-12-12T22:09:26.359Z,-5.00
2022-12-12T22:12:03.665Z,-5.10
2022-12-12T22:14:32.552Z,-5.10
2022-12-12T22:17:02.756Z,-5.20
2022-12-12T22:19:29.800Z,-5.20
2022-12-12T22:21:58.745Z,-5.30
2022-12-12T22:24:26.246Z,-5.20
2022-12-12T22:26:55.226Z,-5.30
2022-12-12T22:29:21.992Z,-5.30
2022-12-12T22:31:52.274Z,-5.30
2022-12-12T22:34:21.798Z,-5.30
2022-12-12T22:36:51.458Z,-5.30
2022-12-12T22:39:24.433Z,-5.30
2022-12-12T22:41:51.519Z,-5.30
2022-12-12T22:44:20.621Z,-5.30
2022-12-12T22:46:49.812Z,-5.30
2022-12-12T22:49:20.080Z,-5.30
2022-12-12T22:51:49.914Z,-5.40
2022-12-12T22:54:16.917Z,-5.40
2022-12-12T22:56:45.118Z,-5.40
2022-12-12T22:59:13.569Z,-5.40
2022-12-12T23:01:41.387Z,-5.40
2022-12-12T23:04:12.875Z,-5.40
2022-12-12T23:06:39.960Z,-5.40
2022-12-12T23:09:18.983Z,-5.40
2022-12-12T23:11:48.249Z,-5.50
2022-12-12T23:14:17.633Z,-5.50
2022-12-12T23:16:45.226Z,-5.60
2022-12-12T23:19:15.443Z,-5.60
2022-12-12T23:21:42.374Z,-5.60
2022-12-12T23:24:12.042Z,-5.50
2022-12-12T23:26:39.354Z,-5.50
2022-12-12T23:29:09.074Z,-5.60
2022-12-12T23:31:38.459Z,-5.60
2022-12-12T23:34:15.420Z,-5.70
2022-12-12T23:36:46.695Z,-5.70
2022-12-12T23:39:13.839Z,-5.70
2022-12-12T23:41:41.339Z,-5.70
2022-12-12T23:44:10.749Z,-5.80
2022-12-12T23:46:42.556Z,-5.70
2022-12-12T23:49:12.206Z,-5.70
2022-12-12T23:51:50.701Z,-5.70
2022-12-12T23:54:23.423Z,-5.70
2022-12-12T23:56:51.197Z,-5.70
2022-12-12T23:59:21.785Z,-5.80
